Time;durP1;ratioP1;P1;durP2;ratioP2;P2;SDS_P1;SDS_P2;PMS_P1;PMS_P2;Temp;Humidity;BMP_temperature;BMP_pressure;BME280_temperature;BME280_humidity;BME280_pressure;Samples;Min_cycle;Max_cycle;Signal;HPM_P1;HPM_P2
2022/11/20 00:01:50;;;;;;;;;;;5.00;99.90;;;;;;5052487;28;20419;-73
2022/11/20 00:04:21;;;;;;;;;;;5.00;99.90;;;;;;5045304;28;20036;-73
2022/11/20 00:06:53;;;;;;;;;;;5.00;99.90;;;;;;5015326;28;19925;-72
2022/11/20 00:09:20;;;;;;;;;;;5.00;99.90;;;;;;5033783;28;20342;-73
2022/11/20 00:11:51;;;;;;;;;;;4.90;99.90;;;;;;5010642;28;19933;-72
2022/11/20 00:14:23;;;;;;;;;;;4.90;99.90;;;;;;5031870;28;19983;-72
2022/11/20 00:16:55;;;;;;;;;;;4.90;99.90;;;;;;5018340;28;19924;-73
2022/11/20 00:19:26;;;;;;;;;;;4.90;99.90;;;;;;5010862;28;20003;-73
2022/11/20 00:21:58;;;;;;;;;;;4.90;99.90;;;;;;5034655;28;19929;-72
2022/11/20 00:24:29;;;;;;;;;;;4.80;99.90;;;;;;5018932;28;19929;-72
2022/11/20 00:26:56;;;;;;;;;;;4.80;99.90;;;;;;5051876;28;19928;-72
2022/11/20 00:29:28;;;;;;;;;;;4.80;99.90;;;;;;5051277;28;19935;-72
2022/11/20 00:31:59;;;;;;;;;;;4.80;99.90;;;;;;5052462;28;19924;-73
2022/11/20 00:34:31;;;;;;;;;;;4.80;99.90;;;;;;5014535;28;20433;-73
2022/11/20 00:37:02;;;;;;;;;;;4.80;99.90;;;;;;5037414;28;19925;-75
2022/11/20 00:39:34;;;;;;;;;;;4.80;99.90;;;;;;5021125;28;19925;-73
2022/11/20 00:42:01;;;;;;;;;;;4.80;99.90;;;;;;5030955;28;19929;-73
2022/11/20 00:44:27;;;;;;;;;;;4.80;99.90;;;;;;5013930;28;20362;-72
2022/11/20 00:46:59;;;;;;;;;;;4.80;99.90;;;;;;5031373;28;19948;-72
2022/11/20 00:49:30;;;;;;;;;;;4.80;99.90;;;;;;5033598;28;19924;-73
2022/11/20 00:52:02;;;;;;;;;;;4.80;99.90;;;;;;5052057;28;19979;-75
2022/11/20 00:54:33;;;;;;;;;;;4.80;99.90;;;;;;5045168;28;19925;-73
2022/11/20 00:57:05;;;;;;;;;;;4.80;99.90;;;;;;5025607;28;19925;-73
2022/11/20 00:59:36;;;;;;;;;;;4.80;99.90;;;;;;5018218;28;20353;-73
2022/11/20 01:02:08;;;;;;;;;;;4.80;99.90;;;;;;5032016;28;19924;-72
2022/11/20 01:04:40;;;;;;;;;;;4.80;99.90;;;;;;5051618;28;19929;-75
2022/11/20 01:07:11;;;;;;;;;;;4.80;99.90;;;;;;5047395;28;19994;-73
2022/11/20 01:09:43;;;;;;;;;;;4.80;99.90;;;;;;5050736;28;20032;-73
2022/11/20 01:12:14;;;;;;;;;;;4.80;99.90;;;;;;5050878;28;20271;-73
2022/11/20 01:14:46;;;;;;;;;;;4.70;99.90;;;;;;5051738;28;19925;-73
2022/11/20 01:17:18;;;;;;;;;;;4.70;99.90;;;;;;5031112;28;20043;-78
2022/11/20 01:19:47;;;;;;;;;;;4.70;99.90;;;;;;5032185;28;19932;-73
2022/11/20 01:22:19;;;;;;;;;;;4.70;99.90;;;;;;5034182;28;19948;-73
2022/11/20 01:24:51;;;;;;;;;;;4.60;99.90;;;;;;5026159;28;19982;-74
2022/11/20 01:27:22;;;;;;;;;;;4.60;99.90;;;;;;5015298;28;19925;-73
2022/11/20 01:29:54;;;;;;;;;;;4.60;99.90;;;;;;5025621;28;20375;-74
2022/11/20 01:32:20;;;;;;;;;;;4.60;99.90;;;;;;5050774;28;19924;-73
2022/11/20 01:34:52;;;;;;;;;;;4.60;99.90;;;;;;5014527;28;19929;-72
2022/11/20 01:37:18;;;;;;;;;;;4.60;99.90;;;;;;5019707;28;19925;-75
2022/11/20 01:39:50;;;;;;;;;;;4.60;99.90;;;;;;5034570;28;19971;-74
2022/11/20 01:45:30;;;;;;;;;;;4.70;99.90;;;;;;5048839;28;19928;-73
2022/11/20 01:48:02;;;;;;;;;;;4.70;99.90;;;;;;5031280;28;19929;-74
2022/11/20 01:50:34;;;;;;;;;;;4.70;99.90;;;;;;5031350;28;19929;-73
2022/11/20 01:53:02;;;;;;;;;;;4.70;99.90;;;;;;5051607;28;19932;-74
2022/11/20 01:55:44;;;;;;;;;;;4.70;99.90;;;;;;5033606;28;19995;-73
2022/11/20 01:58:16;;;;;;;;;;;4.70;99.90;;;;;;5014213;28;19925;-74
2022/11/20 02:00:48;;;;;;;;;;;4.60;99.90;;;;;;5015482;28;19925;-73
2022/11/20 02:03:20;;;;;;;;;;;4.60;99.90;;;;;;5050893;28;19990;-73
2022/11/20 02:06:14;;;;;;;;;;;4.60;99.90;;;;;;5033146;28;20000;-72
2022/11/20 02:08:45;;;;;;;;;;;4.60;99.90;;;;;;5041414;28;19925;-74
2022/11/20 02:11:12;;;;;;;;;;;4.60;99.90;;;;;;5032104;28;19933;-73
2022/11/20 02:13:44;;;;;;;;;;;4.70;99.90;;;;;;5032827;28;19925;-73
2022/11/20 02:16:16;;;;;;;;;;;4.70;99.90;;;;;;5032062;28;19974;-73
2022/11/20 02:18:48;;;;;;;;;;;4.70;99.90;;;;;;5015943;28;19925;-73
2022/11/20 02:21:26;;;;;;;;;;;4.70;99.90;;;;;;5026648;28;19928;-72
2022/11/20 02:24:08;;;;;;;;;;;4.70;99.90;;;;;;5028257;28;20357;-73
2022/11/20 02:26:50;;;;;;;;;;;4.70;99.90;;;;;;5032873;28;19933;-73
2022/11/20 02:29:26;;;;;;;;;;;4.70;99.90;;;;;;5029537;28;19995;-73
2022/11/20 02:31:54;;;;;;;;;;;4.70;99.90;;;;;;5031859;28;19929;-73
2022/11/20 02:34:25;;;;;;;;;;;4.70;99.90;;;;;;5033979;28;20319;-72
2022/11/20 02:36:52;;;;;;;;;;;4.70;99.90;;;;;;5050831;28;19999;-74
2022/11/20 02:39:26;;;;;;;;;;;4.70;99.90;;;;;;5019869;28;20409;-73
2022/11/20 02:41:57;;;;;;;;;;;4.70;99.90;;;;;;5034856;28;19973;-73
2022/11/20 02:44:29;;;;;;;;;;;4.70;99.90;;;;;;5054498;28;19925;-72
2022/11/20 02:47:00;;;;;;;;;;;4.70;99.90;;;;;;5053896;28;19928;-73
2022/11/20 02:49:32;;;;;;;;;;;4.70;99.90;;;;;;5035631;28;20042;-73
2022/11/20 02:52:04;;;;;;;;;;;4.80;99.90;;;;;;5033306;28;19924;-73
2022/11/20 02:54:35;;;;;;;;;;;4.70;99.90;;;;;;5045050;28;19991;-74
2022/11/20 02:57:07;;;;;;;;;;;4.80;99.90;;;;;;5053078;28;19947;-72
2022/11/20 02:59:39;;;;;;;;;;;4.80;99.90;;;;;;5053989;28;19929;-76
2022/11/20 03:02:10;;;;;;;;;;;4.80;99.90;;;;;;5032372;28;19925;-74
2022/11/20 03:04:42;;;;;;;;;;;4.90;99.90;;;;;;5054113;28;19933;-75
2022/11/20 03:07:13;;;;;;;;;;;4.90;99.90;;;;;;5027440;28;20346;-75
2022/11/20 03:09:40;;;;;;;;;;;4.90;99.90;;;;;;5035560;28;19998;-75
2022/11/20 03:12:11;;;;;;;;;;;4.90;99.90;;;;;;5031403;28;19948;-75
2022/11/20 03:14:43;;;;;;;;;;;4.90;99.90;;;;;;5024390;28;19951;-74
2022/11/20 03:17:15;;;;;;;;;;;4.80;99.90;;;;;;5048902;28;19925;-74
2022/11/20 03:19:47;;;;;;;;;;;4.80;99.90;;;;;;5018401;28;19928;-73
2022/11/20 03:22:18;;;;;;;;;;;4.90;99.90;;;;;;5034268;28;20345;-73
2022/11/20 03:24:51;;;;;;;;;;;4.90;99.90;;;;;;5035821;28;19925;-72
2022/11/20 03:27:22;;;;;;;;;;;4.80;99.90;;;;;;5034273;28;19932;-73
2022/11/20 03:29:54;;;;;;;;;;;4.80;99.90;;;;;;5041918;28;19925;-73
2022/11/20 03:32:20;;;;;;;;;;;4.80;99.90;;;;;;5016498;28;19936;-75
2022/11/20 03:34:52;;;;;;;;;;;4.80;99.90;;;;;;5019835;28;19925;-75
2022/11/20 03:37:23;;;;;;;;;;;4.80;99.90;;;;;;5024183;28;19982;-76
2022/11/20 03:39:55;;;;;;;;;;;4.80;99.90;;;;;;5009745;28;19925;-73
2022/11/20 03:42:45;;;;;;;;;;;4.80;99.90;;;;;;5041501;28;19998;-74
2022/11/20 03:45:17;;;;;;;;;;;4.80;99.90;;;;;;5042525;28;19925;-73
2022/11/20 03:47:48;;;;;;;;;;;4.80;99.90;;;;;;5035212;28;19935;-73
2022/11/20 03:50:15;;;;;;;;;;;4.80;99.90;;;;;;5034901;28;20059;-74
2022/11/20 03:52:42;;;;;;;;;;;4.80;99.90;;;;;;5031370;28;19933;-74
2022/11/20 03:55:13;;;;;;;;;;;4.70;99.90;;;;;;5035361;28;19986;-73
2022/11/20 03:57:45;;;;;;;;;;;4.70;99.90;;;;;;5022724;28;19966;-73
2022/11/20 04:00:16;;;;;;;;;;;4.70;99.90;;;;;;5013132;28;20280;-74
2022/11/20 04:02:48;;;;;;;;;;;4.70;99.90;;;;;;5051307;28;20643;-75
2022/11/20 04:05:19;;;;;;;;;;;4.70;99.90;;;;;;5034953;28;19924;-74
2022/11/20 04:07:51;;;;;;;;;;;4.70;99.90;;;;;;5051931;28;19929;-74
2022/11/20 04:10:23;;;;;;;;;;;4.70;99.90;;;;;;5034706;28;19975;-74
2022/11/20 04:12:49;;;;;;;;;;;4.70;99.90;;;;;;5026333;28;19955;-75
2022/11/20 04:15:21;;;;;;;;;;;4.70;99.90;;;;;;5026799;28;19924;-73
2022/11/20 04:17:53;;;;;;;;;;;4.70;99.90;;;;;;5033021;28;19929;-74
2022/11/20 04:20:20;;;;;;;;;;;4.70;99.90;;;;;;5035514;28;19924;-74
2022/11/20 04:22:53;;;;;;;;;;;4.70;99.90;;;;;;5044936;28;19971;-73
2022/11/20 04:25:24;;;;;;;;;;;4.70;99.90;;;;;;5053202;28;19979;-73
2022/11/20 04:27:56;;;;;;;;;;;4.70;99.90;;;;;;5023342;28;19925;-74
2022/11/20 04:30:27;;;;;;;;;;;4.70;99.90;;;;;;5019596;28;19971;-73
2022/11/20 04:32:59;;;;;;;;;;;4.70;99.90;;;;;;5032464;28;19971;-73
2022/11/20 04:35:33;;;;;;;;;;;4.70;99.90;;;;;;5052866;28;19979;-74
2022/11/20 04:38:05;;;;;;;;;;;4.70;99.90;;;;;;5033777;28;20021;-74
2022/11/20 04:40:31;;;;;;;;;;;4.70;99.90;;;;;;5027180;28;19925;-74
2022/11/20 04:43:03;;;;;;;;;;;4.60;99.90;;;;;;5031927;28;19948;-74
2022/11/20 04:45:35;;;;;;;;;;;4.60;99.90;;;;;;5026522;28;19929;-76
2022/11/20 04:48:06;;;;;;;;;;;4.60;99.90;;;;;;5051101;28;19925;-75
2022/11/20 04:50:39;;;;;;;;;;;4.60;99.90;;;;;;5033731;28;19929;-75
2022/11/20 04:53:11;;;;;;;;;;;4.60;99.90;;;;;;5034678;28;19924;-75
2022/11/20 04:55:43;;;;;;;;;;;4.60;99.90;;;;;;5035207;28;20357;-74
2022/11/20 04:58:14;;;;;;;;;;;4.60;99.90;;;;;;5034033;28;19925;-74
2022/11/20 05:00:46;;;;;;;;;;;4.70;99.90;;;;;;5027350;28;19932;-74
2022/11/20 05:03:18;;;;;;;;;;;4.70;99.90;;;;;;5032459;28;20283;-73
2022/11/20 05:05:44;;;;;;;;;;;4.70;99.90;;;;;;5033744;28;19925;-75
2022/11/20 05:08:16;;;;;;;;;;;4.70;99.90;;;;;;5032320;28;20371;-74
2022/11/20 05:10:42;;;;;;;;;;;4.70;99.90;;;;;;5017795;28;19974;-74
2022/11/20 05:13:14;;;;;;;;;;;4.70;99.90;;;;;;5051303;28;19979;-73
2022/11/20 05:15:46;;;;;;;;;;;4.70;99.90;;;;;;5052290;28;19939;-74
2022/11/20 05:18:17;;;;;;;;;;;4.70;99.90;;;;;;5021535;28;19971;-73
2022/11/20 05:20:54;;;;;;;;;;;4.70;99.90;;;;;;5010942;28;19933;-73
2022/11/20 05:23:26;;;;;;;;;;;4.70;99.90;;;;;;5049586;28;19982;-73
2022/11/20 05:25:58;;;;;;;;;;;4.70;99.90;;;;;;5033534;28;20342;-73
2022/11/20 05:28:30;;;;;;;;;;;4.70;99.90;;;;;;5050763;28;19975;-72
2022/11/20 05:31:06;;;;;;;;;;;4.70;99.90;;;;;;5016915;28;19929;-73
2022/11/20 05:33:40;;;;;;;;;;;4.70;99.90;;;;;;5018586;28;20302;-74
2022/11/20 05:36:06;;;;;;;;;;;4.70;99.90;;;;;;5033904;28;19929;-73
2022/11/20 05:38:38;;;;;;;;;;;4.70;99.90;;;;;;5013428;28;19928;-72
2022/11/20 05:41:05;;;;;;;;;;;4.70;99.90;;;;;;5034050;28;19924;-73
2022/11/20 05:43:37;;;;;;;;;;;4.70;99.90;;;;;;5014924;28;19924;-73
2022/11/20 05:46:10;;;;;;;;;;;4.80;99.90;;;;;;5017806;28;20349;-72
2022/11/20 05:48:42;;;;;;;;;;;4.80;99.90;;;;;;5016447;28;19925;-72
2022/11/20 05:51:10;;;;;;;;;;;4.80;99.90;;;;;;5017573;28;19925;-74
2022/11/20 05:53:42;;;;;;;;;;;4.70;99.90;;;;;;5034790;28;20313;-73
2022/11/20 05:56:15;;;;;;;;;;;4.80;99.90;;;;;;5051119;28;19983;-74
2022/11/20 05:58:41;;;;;;;;;;;4.80;99.90;;;;;;5032210;28;19924;-76
2022/11/20 06:01:15;;;;;;;;;;;4.80;99.90;;;;;;5024219;28;20362;-74
2022/11/20 06:03:43;;;;;;;;;;;4.70;99.90;;;;;;5033556;28;19928;-74
2022/11/20 06:06:15;;;;;;;;;;;4.80;99.90;;;;;;5033367;28;19928;-74
2022/11/20 06:08:42;;;;;;;;;;;4.70;99.90;;;;;;5031986;28;19955;-74
2022/11/20 06:11:15;;;;;;;;;;;4.70;99.90;;;;;;5013335;28;20284;-74
2022/11/20 06:13:46;;;;;;;;;;;4.80;99.90;;;;;;5036875;28;19955;-73
2022/11/20 06:16:19;;;;;;;;;;;4.80;99.90;;;;;;5037393;28;19929;-74
2022/11/20 06:18:50;;;;;;;;;;;4.80;99.90;;;;;;5054317;28;19929;-74
2022/11/20 06:21:22;;;;;;;;;;;4.80;99.90;;;;;;5021865;28;20354;-74
2022/11/20 06:23:54;;;;;;;;;;;4.80;99.90;;;;;;5038918;28;19933;-74
2022/11/20 06:26:27;;;;;;;;;;;4.80;99.90;;;;;;5020813;28;19925;-73
2022/11/20 06:28:54;;;;;;;;;;;4.90;99.90;;;;;;5035265;28;20386;-74
2022/11/20 06:31:22;;;;;;;;;;;4.90;99.90;;;;;;5020823;28;19925;-73
2022/11/20 06:33:53;;;;;;;;;;;4.80;99.90;;;;;;5041415;28;19955;-74
2022/11/20 06:36:25;;;;;;;;;;;4.80;99.90;;;;;;5036767;28;19925;-74
2022/11/20 06:38:56;;;;;;;;;;;4.80;99.90;;;;;;5049902;28;20287;-74
2022/11/20 06:41:28;;;;;;;;;;;4.80;99.90;;;;;;5017878;28;19978;-74
2022/11/20 06:43:59;;;;;;;;;;;4.90;99.90;;;;;;5030936;28;19929;-74
2022/11/20 06:46:31;;;;;;;;;;;4.80;99.90;;;;;;5027263;28;19978;-74
2022/11/20 06:49:03;;;;;;;;;;;4.80;99.90;;;;;;5036327;28;19979;-74
2022/11/20 06:51:35;;;;;;;;;;;4.80;99.90;;;;;;5036634;28;19955;-73
2022/11/20 06:54:06;;;;;;;;;;;4.80;99.90;;;;;;5027618;28;19929;-74
2022/11/20 06:56:38;;;;;;;;;;;4.80;99.90;;;;;;5027622;28;19970;-74
2022/11/20 06:59:09;;;;;;;;;;;4.80;99.90;;;;;;5053304;28;19978;-73
2022/11/20 07:01:41;;;;;;;;;;;4.80;99.90;;;;;;5016441;28;19932;-74
2022/11/20 07:04:12;;;;;;;;;;;4.80;99.90;;;;;;5026455;28;19967;-73
2022/11/20 07:06:44;;;;;;;;;;;4.80;99.90;;;;;;5020772;28;20386;-74
2022/11/20 07:09:16;;;;;;;;;;;4.80;99.90;;;;;;5054549;28;19925;-74
2022/11/20 07:11:47;;;;;;;;;;;4.90;99.90;;;;;;5051925;28;19971;-73
2022/11/20 07:14:14;;;;;;;;;;;4.90;99.90;;;;;;5014432;28;20292;-74
2022/11/20 07:16:45;;;;;;;;;;;4.90;99.90;;;;;;5036518;28;19978;-73
2022/11/20 07:19:17;;;;;;;;;;;5.00;99.90;;;;;;5033780;28;19925;-74
2022/11/20 07:21:48;;;;;;;;;;;5.00;99.90;;;;;;5036897;28;19970;-74
2022/11/20 07:24:20;;;;;;;;;;;5.00;99.90;;;;;;5033202;28;19947;-77
2022/11/20 07:26:52;;;;;;;;;;;5.10;99.90;;;;;;5036048;28;19929;-74
2022/11/20 07:29:18;;;;;;;;;;;5.00;99.90;;;;;;5031039;28;19924;-74
2022/11/20 07:31:47;;;;;;;;;;;5.10;99.90;;;;;;5032977;28;20080;-73
2022/11/20 07:34:14;;;;;;;;;;;5.10;99.90;;;;;;5045887;28;19924;-74
2022/11/20 07:36:40;;;;;;;;;;;5.10;99.90;;;;;;5036343;28;20469;-73
2022/11/20 07:39:12;;;;;;;;;;;5.10;99.90;;;;;;5042301;28;19979;-73
2022/11/20 07:41:43;;;;;;;;;;;5.10;99.90;;;;;;5036213;28;19947;-73
2022/11/20 07:44:15;;;;;;;;;;;5.10;99.90;;;;;;5034686;28;19986;-74
2022/11/20 07:46:41;;;;;;;;;;;5.20;99.90;;;;;;5026632;28;19975;-73
2022/11/20 07:49:08;;;;;;;;;;;5.20;99.90;;;;;;5031439;28;19946;-73
2022/11/20 07:51:39;;;;;;;;;;;5.20;99.90;;;;;;5054258;28;19928;-73
2022/11/20 07:54:06;;;;;;;;;;;5.20;99.90;;;;;;5019763;28;20301;-72
2022/11/20 07:56:38;;;;;;;;;;;5.10;99.90;;;;;;5032763;28;19925;-73
2022/11/20 07:59:11;;;;;;;;;;;5.20;99.90;;;;;;5047306;28;19963;-75
2022/11/20 08:01:38;;;;;;;;;;;5.20;99.90;;;;;;5033584;28;19929;-74
2022/11/20 08:04:10;;;;;;;;;;;5.10;99.90;;;;;;5036701;28;19925;-73
2022/11/20 08:06:42;;;;;;;;;;;5.20;99.90;;;;;;5044044;28;19929;-71
2022/11/20 08:09:13;;;;;;;;;;;5.10;99.90;;;;;;5020102;28;19936;-74
2022/11/20 08:14:36;;;;;;;;;;;5.20;99.90;;;;;;5053262;28;19947;-73
2022/11/20 08:17:02;;;;;;;;;;;5.30;99.90;;;;;;5028621;28;19999;-72
2022/11/20 08:19:29;;;;;;;;;;;5.30;99.90;;;;;;5053175;28;19925;-72
2022/11/20 08:22:00;;;;;;;;;;;5.40;99.90;;;;;;5028934;28;19925;-72
2022/11/20 08:24:32;;;;;;;;;;;5.40;99.90;;;;;;5036129;28;19925;-73
2022/11/20 08:26:59;;;;;;;;;;;5.40;99.90;;;;;;5027422;28;20363;-74
2022/11/20 08:29:30;;;;;;;;;;;5.50;99.90;;;;;;5015982;28;20399;-74
2022/11/20 08:32:02;;;;;;;;;;;5.60;99.90;;;;;;5049606;28;19979;-75
2022/11/20 08:34:28;;;;;;;;;;;5.60;99.90;;;;;;5015350;28;19929;-73
2022/11/20 08:37:01;;;;;;;;;;;5.60;99.90;;;;;;5021668;28;19925;-74
2022/11/20 08:39:33;;;;;;;;;;;5.70;99.90;;;;;;5029476;28;21537;-73
2022/11/20 08:42:08;;;;;;;;;;;5.80;99.90;;;;;;5017467;28;19924;-73
2022/11/20 08:44:35;;;;;;;;;;;5.80;99.90;;;;;;5017295;28;19933;-73
2022/11/20 08:47:06;;;;;;;;;;;5.80;99.90;;;;;;5014292;28;19992;-73
2022/11/20 08:49:38;;;;;;;;;;;5.80;99.90;;;;;;5033614;28;19933;-73
2022/11/20 08:52:05;;;;;;;;;;;5.80;99.90;;;;;;5017752;28;19971;-73
2022/11/20 08:54:36;;;;;;;;;;;5.80;99.90;;;;;;5018541;28;19978;-74
2022/11/20 08:57:08;;;;;;;;;;;5.80;99.90;;;;;;5040323;28;20448;-72
2022/11/20 08:59:39;;;;;;;;;;;5.80;99.90;;;;;;5034462;28;19929;-74
2022/11/20 09:02:07;;;;;;;;;;;5.80;99.90;;;;;;5033999;28;20130;-74
2022/11/20 09:04:39;;;;;;;;;;;5.80;99.90;;;;;;5018839;28;19970;-74
2022/11/20 09:07:10;;;;;;;;;;;5.80;99.90;;;;;;5018071;28;19932;-74
2022/11/20 09:09:42;;;;;;;;;;;5.90;99.90;;;;;;5018527;28;19929;-75
2022/11/20 09:12:09;;;;;;;;;;;5.90;99.90;;;;;;5030916;28;19979;-75
2022/11/20 09:14:40;;;;;;;;;;;5.90;99.90;;;;;;5032365;28;20466;-75
2022/11/20 09:17:15;;;;;;;;;;;5.90;99.90;;;;;;5048107;28;19925;-72
2022/11/20 09:19:46;;;;;;;;;;;5.90;99.90;;;;;;5044829;28;20350;-75
2022/11/20 09:22:18;;;;;;;;;;;6.00;99.90;;;;;;5033884;28;19932;-75
2022/11/20 09:24:49;;;;;;;;;;;6.10;99.90;;;;;;5041533;28;20305;-75
2022/11/20 09:27:21;;;;;;;;;;;6.10;99.90;;;;;;5030664;28;19925;-74
2022/11/20 09:29:48;;;;;;;;;;;6.10;99.90;;;;;;5021574;28;19926;-75
2022/11/20 09:32:14;;;;;;;;;;;6.10;99.90;;;;;;5033398;28;19979;-73
2022/11/20 09:34:46;;;;;;;;;;;6.20;99.90;;;;;;5025742;28;19988;-75
2022/11/20 09:37:12;;;;;;;;;;;6.20;99.90;;;;;;5032679;28;19936;-73
2022/11/20 09:39:44;;;;;;;;;;;6.20;99.90;;;;;;5017611;28;19928;-75
2022/11/20 09:42:32;;;;;;;;;;;6.10;99.90;;;;;;5032999;28;19933;-74
2022/11/20 09:45:14;;;;;;;;;;;6.10;99.90;;;;;;5045578;28;19925;-73
2022/11/20 09:47:55;;;;;;;;;;;6.10;99.90;;;;;;5031986;28;20341;-73
2022/11/20 09:50:36;;;;;;;;;;;6.10;99.90;;;;;;5031239;28;20387;-74
2022/11/20 09:53:23;;;;;;;;;;;6.10;99.90;;;;;;5033378;28;19929;-75
2022/11/20 09:55:55;;;;;;;;;;;6.10;99.90;;;;;;5029259;28;19926;-73
2022/11/20 09:58:30;;;;;;;;;;;6.10;99.90;;;;;;5018552;28;19933;-73
2022/11/20 10:01:22;;;;;;;;;;;6.10;99.90;;;;;;5031814;28;19925;-73
2022/11/20 10:03:53;;;;;;;;;;;6.10;99.90;;;;;;5033116;28;19929;-75
2022/11/20 10:06:39;;;;;;;;;;;6.10;99.90;;;;;;5032064;28;19952;-74
2022/11/20 10:09:10;;;;;;;;;;;6.10;99.90;;;;;;5022675;28;20002;-74
2022/11/20 10:11:58;;;;;;;;;;;6.20;99.90;;;;;;5017946;28;20387;-74
2022/11/20 10:14:30;;;;;;;;;;;6.20;99.90;;;;;;5032959;28;20132;-73
2022/11/20 10:17:20;;;;;;;;;;;6.20;99.90;;;;;;5026559;28;19932;-74
2022/11/20 10:19:55;;;;;;;;;;;6.20;99.90;;;;;;5031600;28;19924;-73
2022/11/20 10:22:36;;;;;;;;;;;6.20;99.90;;;;;;5030623;28;19928;-74
2022/11/20 10:25:12;;;;;;;;;;;6.10;99.90;;;;;;5031916;28;19932;-74
2022/11/20 10:27:44;;;;;;;;;;;6.10;99.90;;;;;;5049764;28;19929;-73
2022/11/20 10:30:17;;;;;;;;;;;6.10;99.90;;;;;;5028288;28;19925;-74
2022/11/20 10:32:49;;;;;;;;;;;6.20;99.90;;;;;;5033594;28;19929;-74
2022/11/20 10:35:35;;;;;;;;;;;6.10;99.90;;;;;;5050848;28;20346;-74
2022/11/20 10:38:14;;;;;;;;;;;6.10;99.90;;;;;;5049271;28;19951;-74
2022/11/20 10:40:48;;;;;;;;;;;6.10;99.90;;;;;;5029509;28;19925;-74
2022/11/20 10:43:31;;;;;;;;;;;6.10;99.90;;;;;;5051376;28;20414;-73
2022/11/20 10:46:06;;;;;;;;;;;6.10;99.90;;;;;;5030989;28;19925;-76
2022/11/20 10:48:38;;;;;;;;;;;6.10;99.90;;;;;;5029073;28;19951;-74
2022/11/20 10:51:12;;;;;;;;;;;6.10;99.90;;;;;;5027091;28;19929;-74
2022/11/20 10:53:53;;;;;;;;;;;6.10;99.90;;;;;;5031932;28;19925;-74
2022/11/20 10:56:24;;;;;;;;;;;6.20;99.90;;;;;;5014055;28;20380;-74
2022/11/20 10:58:56;;;;;;;;;;;6.20;99.90;;;;;;5032262;28;20375;-75
2022/11/20 11:01:28;;;;;;;;;;;6.20;99.90;;;;;;5036674;28;19971;-73
2022/11/20 11:04:00;;;;;;;;;;;6.20;99.90;;;;;;5022360;28;19931;-74
2022/11/20 11:06:37;;;;;;;;;;;6.30;99.90;;;;;;5044814;28;19979;-74
2022/11/20 11:09:12;;;;;;;;;;;6.20;99.90;;;;;;5021023;28;19929;-75
2022/11/20 11:11:44;;;;;;;;;;;6.20;99.90;;;;;;5037466;28;19929;-74
2022/11/20 11:14:15;;;;;;;;;;;6.20;99.90;;;;;;5053749;28;19932;-73
2022/11/20 11:16:57;;;;;;;;;;;6.20;99.90;;;;;;5037366;28;19955;-73
2022/11/20 11:19:28;;;;;;;;;;;6.20;99.90;;;;;;5014497;28;20383;-72
2022/11/20 11:21:56;;;;;;;;;;;6.30;99.90;;;;;;5036466;28;19928;-72
2022/11/20 11:24:27;;;;;;;;;;;6.30;99.90;;;;;;5019991;28;19925;-74
2022/11/20 11:27:04;;;;;;;;;;;6.30;99.90;;;;;;5052557;28;19924;-74
2022/11/20 11:29:31;;;;;;;;;;;6.40;99.90;;;;;;5031050;28;19925;-75
2022/11/20 11:32:04;;;;;;;;;;;6.40;99.90;;;;;;5037393;28;19929;-75
2022/11/20 11:34:31;;;;;;;;;;;6.40;99.90;;;;;;5052027;28;19925;-75
2022/11/20 11:36:59;;;;;;;;;;;6.40;99.90;;;;;;5030419;28;20279;-74
2022/11/20 11:39:32;;;;;;;;;;;6.40;99.90;;;;;;5016555;28;19925;-74
2022/11/20 11:42:03;;;;;;;;;;;6.40;99.90;;;;;;5016073;28;19929;-73
2022/11/20 11:47:24;;;;;;;;;;;6.40;99.90;;;;;;5034241;28;20055;-74
2022/11/20 11:50:09;;;;;;;;;;;6.40;99.90;;;;;;5034199;28;19975;-74
2022/11/20 11:52:41;;;;;;;;;;;6.40;99.90;;;;;;5028140;28;19937;-73
2022/11/20 11:55:16;;;;;;;;;;;6.40;99.90;;;;;;5017844;28;19974;-74
2022/11/20 11:57:56;;;;;;;;;;;6.30;99.90;;;;;;5015669;28;19959;-75
2022/11/20 12:00:28;;;;;;;;;;;6.30;99.90;;;;;;5023306;28;19928;-73
2022/11/20 12:03:08;;;;;;;;;;;6.20;99.90;;;;;;5050333;28;19978;-73
2022/11/20 12:05:43;;;;;;;;;;;6.20;99.90;;;;;;5035321;28;19925;-73
2022/11/20 12:08:19;;;;;;;;;;;6.20;99.90;;;;;;5033381;28;19932;-73
2022/11/20 12:10:57;;;;;;;;;;;6.10;99.90;;;;;;5027632;28;20379;-72
2022/11/20 12:13:41;;;;;;;;;;;6.10;99.90;;;;;;5036867;28;19936;-72
2022/11/20 12:16:14;;;;;;;;;;;6.10;99.90;;;;;;5001862;28;19926;-73
2022/11/20 12:18:48;;;;;;;;;;;6.10;99.90;;;;;;5025993;28;19959;-71
2022/11/20 12:21:21;;;;;;;;;;;6.10;99.90;;;;;;5022844;28;19929;-72
2022/11/20 12:24:02;;;;;;;;;;;6.10;99.90;;;;;;5033343;28;19928;-72
2022/11/20 12:26:46;;;;;;;;;;;6.00;99.90;;;;;;5033870;28;19986;-73
2022/11/20 12:29:32;;;;;;;;;;;6.00;99.90;;;;;;5036962;28;19929;-72
2022/11/20 12:32:22;;;;;;;;;;;6.10;99.90;;;;;;5038143;28;19929;-75
2022/11/20 12:35:05;;;;;;;;;;;6.00;99.90;;;;;;5041894;28;19962;-72
2022/11/20 12:37:49;;;;;;;;;;;6.00;99.90;;;;;;5033435;28;19990;-72
2022/11/20 12:40:30;;;;;;;;;;;6.00;99.90;;;;;;5044017;28;19925;-73
2022/11/20 12:45:52;;;;;;;;;;;6.00;99.90;;;;;;5031705;28;19925;-73
2022/11/20 12:48:43;;;;;;;;;;;5.90;99.90;;;;;;5022396;28;19980;-73
2022/11/20 12:51:33;;;;;;;;;;;5.90;99.90;;;;;;5051239;28;19924;-73
2022/11/20 12:54:04;;;;;;;;;;;5.80;99.90;;;;;;5030916;28;20457;-73
2022/11/20 12:56:42;;;;;;;;;;;5.90;99.90;;;;;;5030109;28;19936;-74
2022/11/20 12:59:26;;;;;;;;;;;5.90;99.90;;;;;;5047637;28;19925;-72
2022/11/20 13:02:16;;;;;;;;;;;5.90;99.90;;;;;;5031505;28;19924;-73
2022/11/20 13:04:51;;;;;;;;;;;5.80;99.90;;;;;;5035974;28;19925;-73
2022/11/20 13:07:24;;;;;;;;;;;5.80;99.90;;;;;;5035737;28;19925;-71
2022/11/20 13:09:56;;;;;;;;;;;5.80;99.90;;;;;;5034778;28;19928;-73
2022/11/20 13:12:39;;;;;;;;;;;5.80;99.90;;;;;;5035689;28;19928;-74
2022/11/20 13:15:24;;;;;;;;;;;5.80;99.90;;;;;;5035079;28;20338;-72
2022/11/20 13:17:59;;;;;;;;;;;5.80;99.90;;;;;;5029269;28;19929;-74
2022/11/20 13:20:25;;;;;;;;;;;5.90;99.90;;;;;;5029335;28;20461;-73
2022/11/20 13:22:57;;;;;;;;;;;5.80;99.90;;;;;;5051461;28;19925;-73
2022/11/20 13:25:27;;;;;;;;;;;5.90;99.90;;;;;;5035073;28;19970;-72
2022/11/20 13:28:00;;;;;;;;;;;5.90;99.90;;;;;;5047066;28;19987;-73
2022/11/20 13:30:32;;;;;;;;;;;5.90;99.90;;;;;;5044354;28;19924;-73
2022/11/20 13:33:08;;;;;;;;;;;5.90;99.90;;;;;;5031205;28;20342;-72
2022/11/20 13:35:37;;;;;;;;;;;6.00;99.90;;;;;;5034577;28;19978;-74
2022/11/20 13:38:08;;;;;;;;;;;6.00;99.90;;;;;;5033748;28;20034;-75
2022/11/20 13:40:52;;;;;;;;;;;6.00;99.90;;;;;;5017519;28;20285;-71
2022/11/20 13:43:28;;;;;;;;;;;6.00;99.90;;;;;;5014756;28;20442;-74
2022/11/20 13:46:01;;;;;;;;;;;6.10;99.90;;;;;;5029458;28;19925;-74
2022/11/20 13:48:48;;;;;;;;;;;6.10;99.90;;;;;;5033314;28;19925;-74
2022/11/20 13:51:34;;;;;;;;;;;6.10;99.90;;;;;;5029891;28;19933;-74
2022/11/20 13:54:26;;;;;;;;;;;6.10;99.90;;;;;;5031291;28;20290;-73
2022/11/20 13:57:17;;;;;;;;;;;6.20;99.90;;;;;;5031327;28;19929;-73
2022/11/20 13:59:48;;;;;;;;;;;6.20;99.90;;;;;;5032541;28;19936;-73
2022/11/20 14:02:16;;;;;;;;;;;6.20;99.90;;;;;;5047117;28;20384;-72
2022/11/20 14:04:49;;;;;;;;;;;6.20;99.90;;;;;;5051097;28;19928;-75
2022/11/20 14:07:23;;;;;;;;;;;6.30;99.90;;;;;;5022896;28;21565;-74
2022/11/20 14:09:55;;;;;;;;;;;6.30;99.90;;;;;;5042249;28;20674;-74
2022/11/20 14:12:28;;;;;;;;;;;6.30;99.90;;;;;;5026289;28;20609;-73
2022/11/20 14:15:00;;;;;;;;;;;6.30;99.90;;;;;;5038904;28;19933;-73
2022/11/20 14:17:33;;;;;;;;;;;6.30;99.90;;;;;;5013181;28;19991;-74
2022/11/20 14:20:07;;;;;;;;;;;6.30;99.90;;;;;;5019896;28;19933;-72
2022/11/20 14:22:38;;;;;;;;;;;6.30;99.90;;;;;;5021025;28;20776;-74
2022/11/20 14:25:16;;;;;;;;;;;6.30;99.90;;;;;;5040491;28;20256;-74
2022/11/20 14:27:51;;;;;;;;;;;6.30;99.90;;;;;;5045041;28;20267;-73
2022/11/20 14:30:20;;;;;;;;;;;6.30;99.90;;;;;;5047878;28;19983;-73
2022/11/20 14:32:54;;;;;;;;;;;6.30;99.90;;;;;;5015859;28;19928;-72
2022/11/20 14:35:27;;;;;;;;;;;6.30;99.90;;;;;;5017589;28;19933;-74
2022/11/20 14:37:54;;;;;;;;;;;6.30;99.90;;;;;;5036023;28;19979;-74
2022/11/20 14:40:31;;;;;;;;;;;6.20;99.90;;;;;;5036596;28;20318;-75
2022/11/20 14:43:17;;;;;;;;;;;6.20;99.90;;;;;;5013841;28;19929;-73
2022/11/20 14:45:45;;;;;;;;;;;6.20;99.90;;;;;;5035364;28;19925;-73
2022/11/20 14:48:17;;;;;;;;;;;6.10;99.90;;;;;;5037439;28;19929;-74
2022/11/20 14:50:48;;;;;;;;;;;6.00;99.90;;;;;;5018261;28;19972;-71
2022/11/20 14:53:24;;;;;;;;;;;5.90;99.90;;;;;;5033946;28;19929;-73
2022/11/20 14:55:57;;;;;;;;;;;5.80;99.90;;;;;;5034735;28;19929;-73
2022/11/20 14:58:31;;;;;;;;;;;5.70;99.90;;;;;;5029762;28;20045;-73
2022/11/20 15:01:05;;;;;;;;;;;5.70;99.90;;;;;;5043851;28;19925;-74
2022/11/20 15:03:37;;;;;;;;;;;5.60;99.90;;;;;;5026391;28;19928;-74
2022/11/20 15:06:05;;;;;;;;;;;5.60;99.90;;;;;;5022818;28;19936;-73
2022/11/20 15:08:36;;;;;;;;;;;5.50;99.90;;;;;;5025648;28;20358;-73
2022/11/20 15:11:20;;;;;;;;;;;5.50;99.90;;;;;;5035489;28;19982;-73
2022/11/20 15:13:51;;;;;;;;;;;5.50;99.90;;;;;;5023507;28;20042;-73
2022/11/20 15:16:24;;;;;;;;;;;5.50;99.90;;;;;;5020825;28;19925;-73